Blairsville, Georgia
Current Conditions -  °F | °C
As of 8:55 AM on Friday 31 Oct 2014 (Local Time) from KRHP Reporting Station
Haze Haze  
Wind Chill: 34°   Ceiling: 200
Heat Index: 34°   Visibility: 4mi
Dew Point: 34°   Wind: 3mph
Humidity: 100%   Direction: 230°SW
Pressure: 29.98"   Gusts: NA
Location:  34.88°N, 83.95°W
Report Text: KRHP 311255Z AUTO 23003KT 4SM BR BKN002 OVC090 01/01 A2998 RMK AO2 T00120012
Loading
Personal Weather Stations






























Interactive Weather Map
Tropical Storm Tracking
New forecast layout! Learn more

10-Day Weather Forecast

Advertisements
Track Severe Weather on mobile